Time;durP1;ratioP1;P1;durP2;ratioP2;P2;SDS_P1;SDS_P2;PMS_P1;PMS_P2;Temp;Humidity;BMP_temperature;BMP_pressure;BME280_temperature;BME280_humidity;BME280_pressure;Samples;Min_cycle;Max_cycle;Signal;HPM_P1;HPM_P2
2021/06/02 00:00:10;;;;;;;2.92;2.60;;;;;;;;;;6250053;28;20051;-78
2021/06/02 00:03:14;;;;;;;5.07;2.95;;;;;;;;;;6246877;28;20626;-79
2021/06/02 00:06:17;;;;;;;5.43;2.75;;;;;;;;;;6241072;28;20460;-80
2021/06/02 00:09:18;;;;;;;4.85;2.85;;;;;;;;;;6223430;28;20041;-79
2021/06/02 00:12:21;;;;;;;4.55;2.90;;;;;;;;;;6224971;28;20042;-79
2021/06/02 00:15:23;;;;;;;4.15;2.88;;;;;;;;;;6223359;28;20042;-80
2021/06/02 00:18:24;;;;;;;4.93;3.00;;;;;;;;;;6246210;28;20045;-79
2021/06/02 00:21:27;;;;;;;3.92;2.85;;;;;;;;;;6250740;28;20043;-80
2021/06/02 00:24:29;;;;;;;3.75;3.00;;;;;;;;;;6249880;28;20113;-80
2021/06/02 00:27:31;;;;;;;3.85;3.00;;;;;;;;;;6258423;28;20068;-80
2021/06/02 00:30:36;;;;;;;4.87;2.93;;;;;;;;;;6258621;28;20050;-80
2021/06/02 00:33:38;;;;;;;4.75;3.05;;;;;;;;;;6256007;28;20105;-79
2021/06/02 00:36:44;;;;;;;5.18;2.80;;;;;;;;;;6255801;28;20422;-79
2021/06/02 00:39:49;;;;;;;3.58;2.72;;;;;;;;;;6253870;28;20041;-80
2021/06/02 00:42:51;;;;;;;4.45;2.78;;;;;;;;;;6232548;28;20188;-79
2021/06/02 00:45:54;;;;;;;4.43;2.97;;;;;;;;;;6236255;28;20163;-79
2021/06/02 00:48:56;;;;;;;3.60;2.78;;;;;;;;;;6241853;28;20577;-80
2021/06/02 00:51:59;;;;;;;4.35;2.72;;;;;;;;;;6232674;28;20117;-80
2021/06/02 00:55:01;;;;;;;3.92;2.90;;;;;;;;;;6246339;28;20041;-80
2021/06/02 00:58:05;;;;;;;4.05;2.92;;;;;;;;;;6257773;28;20097;-79
2021/06/02 01:01:08;;;;;;;3.65;2.95;;;;;;;;;;6258247;28;20096;-79
2021/06/02 01:04:11;;;;;;;4.10;3.05;;;;;;;;;;6232348;28;20061;-79
2021/06/02 01:07:13;;;;;;;5.97;3.43;;;;;;;;;;6224770;28;20061;-80
2021/06/02 01:10:16;;;;;;;5.13;3.33;;;;;;;;;;6253856;28;20044;-80
2021/06/02 01:13:19;;;;;;;4.88;3.40;;;;;;;;;;6255982;28;20105;-81
2021/06/02 01:16:21;;;;;;;4.68;3.38;;;;;;;;;;6255869;28;20045;-81
2021/06/02 01:19:24;;;;;;;5.22;3.47;;;;;;;;;;6254182;28;20049;-81
2021/06/02 01:22:28;;;;;;;8.13;3.53;;;;;;;;;;6255538;28;20096;-81
2021/06/02 01:25:30;;;;;;;4.32;3.20;;;;;;;;;;6255780;28;20053;-80
2021/06/02 01:28:32;;;;;;;4.82;3.10;;;;;;;;;;6258082;28;20077;-80
2021/06/02 01:31:39;;;;;;;3.55;3.20;;;;;;;;;;6257766;28;20052;-80
2021/06/02 01:34:50;;;;;;;6.30;3.40;;;;;;;;;;6245749;28;20050;-81
2021/06/02 01:38:23;;;;;;;5.32;3.33;;;;;;;;;;6229727;28;20113;-79
2021/06/02 01:41:34;;;;;;;4.57;3.20;;;;;;;;;;6223029;28;20049;-80
2021/06/02 01:44:57;;;;;;;4.38;3.40;;;;;;;;;;6207722;28;20111;-79
2021/06/02 01:48:11;;;;;;;5.03;3.20;;;;;;;;;;6215245;28;20121;-79
2021/06/02 01:52:07;;;;;;;4.05;3.38;;;;;;;;;;6205600;28;20050;-80
2021/06/02 01:55:39;;;;;;;4.13;3.20;;;;;;;;;;6194656;28;20634;-80
2021/06/02 01:58:47;;;;;;;5.60;3.30;;;;;;;;;;6256267;28;20046;-80
2021/06/02 02:02:11;;;;;;;4.63;3.30;;;;;;;;;;6256745;28;20060;-79
2021/06/02 02:05:16;;;;;;;4.05;3.33;;;;;;;;;;6210224;28;20043;-79
2021/06/02 02:08:22;;;;;;;5.30;3.28;;;;;;;;;;6250635;28;20120;-80
2021/06/02 02:11:29;;;;;;;4.75;3.63;;;;;;;;;;6209838;28;20113;-79
2021/06/02 02:14:53;;;;;;;4.35;3.35;;;;;;;;;;6235121;28;20101;-81
2021/06/02 02:18:00;;;;;;;;;;;;;;;;;;6237445;28;20061;-80
2021/06/02 02:21:20;;;;;;;6.82;3.70;;;;;;;;;;6250604;28;20605;-81
2021/06/02 02:24:29;;;;;;;4.20;3.38;;;;;;;;;;6235485;28;20046;-79
2021/06/02 02:27:30;;;;;;;8.57;3.63;;;;;;;;;;6261467;28;20064;-80
2021/06/02 02:30:41;;;;;;;7.32;3.90;;;;;;;;;;6260706;28;20068;-80
2021/06/02 02:34:11;;;;;;;4.72;3.78;;;;;;;;;;6244011;28;20148;-80
2021/06/02 02:37:31;;;;;;;6.65;3.90;;;;;;;;;;6251584;28;20058;-79
2021/06/02 02:40:38;;;;;;;4.78;3.75;;;;;;;;;;6252983;28;20046;-79
2021/06/02 02:43:59;;;;;;;6.30;4.10;;;;;;;;;;6256805;28;20105;-79
2021/06/02 02:47:04;;;;;;;5.20;3.75;;;;;;;;;;6240186;28;20112;-80
2021/06/02 02:50:13;;;;;;;5.90;3.72;;;;;;;;;;6270825;28;20124;-80
2021/06/02 02:53:24;;;;;;;5.90;3.75;;;;;;;;;;6258322;28;20110;-81
2021/06/02 02:56:36;;;;;;;7.53;4.35;;;;;;;;;;6210215;28;20499;-79
2021/06/02 02:59:55;;;;;;;3.97;3.45;;;;;;;;;;6210175;28;20058;-80
2021/06/02 03:03:10;;;;;;;5.47;3.92;;;;;;;;;;6214825;28;20499;-80
2021/06/02 03:06:35;;;;;;;5.75;3.92;;;;;;;;;;6232677;28;20049;-80
2021/06/02 03:09:53;;;;;;;5.50;3.85;;;;;;;;;;6238691;28;20066;-80
2021/06/02 03:13:08;;;;;;;6.03;4.00;;;;;;;;;;6250515;28;20065;-80
2021/06/02 03:16:17;;;;;;;5.07;3.80;;;;;;;;;;6234740;28;20056;-80
2021/06/02 03:19:23;;;;;;;7.38;3.92;;;;;;;;;;6234288;28;20133;-81
2021/06/02 03:22:29;;;;;;;6.25;4.00;;;;;;;;;;6231802;28;20149;-79
2021/06/02 03:25:36;;;;;;;5.82;3.92;;;;;;;;;;6247627;28;20129;-80
2021/06/02 03:29:03;;;;;;;5.88;4.05;;;;;;;;;;6255580;28;20050;-78
2021/06/02 03:32:12;;;;;;;4.55;3.92;;;;;;;;;;6227774;28;20154;-79
2021/06/02 03:35:23;;;;;;;4.85;3.22;;;;;;;;;;6243701;28;20038;-80
2021/06/02 03:38:49;;;;;;;6.30;3.85;;;;;;;;;;6242200;28;20113;-80
2021/06/02 03:42:07;;;;;;;5.65;3.70;;;;;;;;;;6234882;28;20651;-80
2021/06/02 03:45:36;;;;;;;5.95;4.03;;;;;;;;;;6226389;28;20055;-80
2021/06/02 03:48:53;;;;;;;5.53;3.67;;;;;;;;;;6258473;28;20132;-79
2021/06/02 03:52:08;;;;;;;5.25;3.80;;;;;;;;;;6225582;28;20133;-79
2021/06/02 03:55:18;;;;;;;5.10;3.88;;;;;;;;;;6242885;28;20109;-80
2021/06/02 03:58:26;;;;;;;4.90;3.78;;;;;;;;;;6251172;28;20093;-78
2021/06/02 04:01:40;;;;;;;5.25;3.75;;;;;;;;;;6251016;28;20521;-79
2021/06/02 04:05:23;;;;;;;4.35;3.63;;;;;;;;;;6247881;28;20046;-79
2021/06/02 04:08:42;;;;;;;4.30;3.67;;;;;;;;;;6248554;28;20115;-80
2021/06/02 04:11:54;;;;;;;5.38;3.60;;;;;;;;;;6201714;28;20131;-79
2021/06/02 04:14:57;;;;;;;4.85;3.75;;;;;;;;;;6201975;28;20083;-80
2021/06/02 04:17:59;;;;;;;6.55;3.60;;;;;;;;;;6212669;28;20721;-80
2021/06/02 04:21:02;;;;;;;6.82;4.20;;;;;;;;;;6240388;28;20073;-80
2021/06/02 04:24:05;;;;;;;4.85;4.13;;;;;;;;;;6230654;28;20490;-79
2021/06/02 04:27:07;;;;;;;7.28;4.35;;;;;;;;;;6250223;28;20101;-78
2021/06/02 04:30:10;;;;;;;4.97;3.67;;;;;;;;;;6247582;28;20124;-80
2021/06/02 04:33:15;;;;;;;6.72;4.70;;;;;;;;;;6245947;28;20135;-79
2021/06/02 04:36:17;;;;;;;4.97;3.95;;;;;;;;;;6223596;28;20466;-79
2021/06/02 04:39:20;;;;;;;7.65;4.25;;;;;;;;;;6233054;28;20045;-77
2021/06/02 04:42:22;;;;;;;5.32;4.10;;;;;;;;;;6249823;28;20128;-79
2021/06/02 04:45:29;;;;;;;6.85;4.57;;;;;;;;;;6247329;28;20044;-80
2021/06/02 04:48:31;;;;;;;6.78;4.80;;;;;;;;;;6223498;28;20050;-78
2021/06/02 04:52:05;;;;;;;5.68;4.10;;;;;;;;;;6247300;28;20081;-80
2021/06/02 04:55:13;;;;;;;8.88;5.40;;;;;;;;;;6245416;28;20128;-79
2021/06/02 04:58:38;;;;;;;9.23;4.90;;;;;;;;;;6250621;28;20406;-79
2021/06/02 05:02:16;;;;;;;7.40;4.72;;;;;;;;;;6248932;28;20049;-79
2021/06/02 05:05:52;;;;;;;7.07;4.50;;;;;;;;;;6248061;28;20045;-80
2021/06/02 05:09:34;;;;;;;8.15;4.88;;;;;;;;;;6242654;28;20049;-79
2021/06/02 05:12:48;;;;;;;7.93;4.22;;;;;;;;;;6224401;28;20105;-78
2021/06/02 05:16:28;;;;;;;7.22;4.43;;;;;;;;;;6224712;28;20478;-79
2021/06/02 05:23:21;;;;;;;7.63;4.88;;;;;;;;;;6273191;28;20040;-79
2021/06/02 05:26:29;;;;;;;5.55;4.40;;;;;;;;;;6195525;28;20431;-77
2021/06/02 05:30:08;;;;;;;5.53;4.38;;;;;;;;;;6224076;28;20052;-79
2021/06/02 05:33:58;;;;;;;5.88;4.25;;;;;;;;;;6198474;28;20070;-79
2021/06/02 05:37:13;;;;;;;6.13;4.70;;;;;;;;;;6186582;28;20542;-79
2021/06/02 05:40:23;;;;;;;5.38;4.30;;;;;;;;;;6233918;28;20507;-81
2021/06/02 05:44:03;;;;;;;5.57;4.53;;;;;;;;;;6242866;28;20052;-80
2021/06/02 05:47:36;;;;;;;6.78;4.78;;;;;;;;;;6226323;28;20068;-80
2021/06/02 05:50:59;;;;;;;8.30;4.53;;;;;;;;;;6249372;28;20051;-80
2021/06/02 05:54:49;;;;;;;7.10;5.10;;;;;;;;;;6250999;28;20494;-79
2021/06/02 05:58:24;;;;;;;8.43;5.20;;;;;;;;;;6251596;28;20068;-78
2021/06/02 06:01:38;;;;;;;8.10;5.07;;;;;;;;;;6253669;28;20109;-80
2021/06/02 06:04:39;;;;;;;;;;;;;;;;;;6253373;28;20105;-79
2021/06/02 06:08:09;;;;;;;7.35;4.60;;;;;;;;;;6252506;28;20012;-79
2021/06/02 06:11:33;;;;;;;6.85;4.95;;;;;;;;;;6230681;28;20109;-78
2021/06/02 06:14:48;;;;;;;11.23;5.35;;;;;;;;;;6227107;28;20137;-80
2021/06/02 06:18:23;;;;;;;10.00;4.82;;;;;;;;;;6214170;28;20109;-79
2021/06/02 06:22:02;;;;;;;7.93;4.50;;;;;;;;;;6232999;28;20080;-79
2021/06/02 06:25:14;;;;;;;6.18;4.20;;;;;;;;;;6234071;28;20129;-80
2021/06/02 06:28:29;;;;;;;9.20;4.07;;;;;;;;;;6246627;28;20129;-79
2021/06/02 06:31:34;;;;;;;11.25;4.88;;;;;;;;;;6253975;28;20132;-78
2021/06/02 06:34:39;;;;;;;9.80;3.90;;;;;;;;;;6273131;28;20041;-77
2021/06/02 06:37:49;;;;;;;6.07;3.97;;;;;;;;;;6280543;28;20100;-78
2021/06/02 06:40:53;;;;;;;5.40;3.97;;;;;;;;;;6274143;28;20128;-79
2021/06/02 06:43:56;;;;;;;;;;;;;;;;;;6273093;28;20045;-78
2021/06/02 06:47:01;;;;;;;6.78;4.38;;;;;;;;;;6260627;28;20409;-79
2021/06/02 06:50:07;;;;;;;5.82;4.13;;;;;;;;;;6269751;28;20041;-79
2021/06/02 06:53:09;;;;;;;7.88;4.03;;;;;;;;;;6277411;28;20075;-79
2021/06/02 06:56:11;;;;;;;5.22;4.40;;;;;;;;;;6278545;28;20048;-79
2021/06/02 06:59:18;;;;;;;7.18;3.97;;;;;;;;;;6257865;28;20061;-78
2021/06/02 07:02:19;;;;;;;7.50;4.25;;;;;;;;;;6253287;28;20060;-82
2021/06/02 07:05:23;;;;;;;9.13;4.25;;;;;;;;;;6250846;28;20041;-79
2021/06/02 07:08:26;;;;;;;8.07;4.32;;;;;;;;;;6246323;28;20083;-79
2021/06/02 07:11:29;;;;;;;;;;;;;;;;;;6209463;28;20061;-78
2021/06/02 07:14:32;;;;;;;6.55;4.15;;;;;;;;;;6225051;28;19921;-77
2021/06/02 07:17:39;;;;;;;7.75;4.00;;;;;;;;;;6229709;28;20124;-78
2021/06/02 07:20:41;;;;;;;5.85;4.40;;;;;;;;;;6250705;28;20136;-79
2021/06/02 07:23:43;;;;;;;4.45;3.45;;;;;;;;;;6246391;28;20713;-79
2021/06/02 07:26:46;;;;;;;4.90;4.10;;;;;;;;;;6248107;28;20052;-80
2021/06/02 07:29:56;;;;;;;7.55;3.67;;;;;;;;;;6236928;28;20046;-78
2021/06/02 07:32:57;;;;;;;7.93;4.22;;;;;;;;;;6239418;28;20118;-78
2021/06/02 07:35:59;;;;;;;5.15;3.50;;;;;;;;;;6243329;28;20051;-77
2021/06/02 07:39:01;;;;;;;7.25;3.60;;;;;;;;;;6243888;28;20049;-79
2021/06/02 07:42:04;;;;;;;5.38;4.32;;;;;;;;;;6243309;28;20117;-78
2021/06/02 07:45:05;;;;;;;;;;;;;;;;;;6245149;28;20629;-77
2021/06/02 07:48:07;;;;;;;4.22;3.83;;;;;;;;;;6250190;28;20433;-78
2021/06/02 07:51:09;;;;;;;6.13;3.63;;;;;;;;;;6242196;28;20124;-77
2021/06/02 07:54:11;;;;;;;3.72;3.42;;;;;;;;;;6238272;28;20109;-77
2021/06/02 07:57:12;;;;;;;5.90;3.60;;;;;;;;;;6241276;28;20124;-78
2021/06/02 08:00:15;;;;;;;5.07;3.72;;;;;;;;;;6243195;28;20502;-77
2021/06/02 08:03:16;;;;;;;4.27;3.70;;;;;;;;;;6243796;28;20052;-79
2021/06/02 08:06:18;;;;;;;4.70;4.03;;;;;;;;;;6243907;28;21035;-79
2021/06/02 08:09:19;;;;;;;4.88;3.80;;;;;;;;;;6236665;28;20119;-78
2021/06/02 08:12:21;;;;;;;8.18;3.90;;;;;;;;;;6228672;28;20067;-80
2021/06/02 08:15:23;;;;;;;4.40;3.78;;;;;;;;;;6247468;28;20045;-80
2021/06/02 08:18:24;;;;;;;6.13;3.92;;;;;;;;;;6225238;28;20042;-79
2021/06/02 08:21:26;;;;;;;5.57;3.83;;;;;;;;;;6224886;28;20109;-79
2021/06/02 08:24:28;;;;;;;5.82;3.70;;;;;;;;;;6225975;28;20041;-78
2021/06/02 08:27:29;;;;;;;5.80;3.60;;;;;;;;;;6222642;28;20042;-80
2021/06/02 08:30:31;;;;;;;4.85;3.53;;;;;;;;;;6221995;28;20046;-80
2021/06/02 08:33:32;;;;;;;4.78;3.67;;;;;;;;;;6233183;28;20052;-80
2021/06/02 08:36:34;;;;;;;6.97;3.80;;;;;;;;;;6234998;28;20528;-80
2021/06/02 08:39:36;;;;;;;4.23;3.47;;;;;;;;;;6238691;28;20134;-79
2021/06/02 08:42:48;;;;;;;3.67;3.28;;;;;;;;;;6271166;28;20048;-79
2021/06/02 08:45:55;;;;;;;4.82;3.72;;;;;;;;;;6241615;28;20045;-78
2021/06/02 08:48:57;;;;;;;5.70;3.38;;;;;;;;;;6218584;28;20499;-79
2021/06/02 08:52:04;;;;;;;4.20;3.55;;;;;;;;;;6233280;28;20072;-79
2021/06/02 08:55:19;;;;;;;6.07;3.40;;;;;;;;;;6245078;28;20533;-78
2021/06/02 08:58:22;;;;;;;5.10;3.50;;;;;;;;;;6265299;28;20136;-79
2021/06/02 09:01:25;;;;;;;4.35;3.30;;;;;;;;;;6266004;28;20045;-80
2021/06/02 09:04:27;;;;;;;4.18;3.38;;;;;;;;;;6267556;28;20508;-80
2021/06/02 09:07:29;;;;;;;3.80;3.40;;;;;;;;;;6269589;28;20037;-79
2021/06/02 09:10:36;;;;;;;;;;;;;;;;;;6252853;28;20438;-78
2021/06/02 09:13:38;;;;;;;4.82;3.10;;;;;;;;;;6246428;28;19921;-78
2021/06/02 09:16:48;;;;;;;3.70;3.00;;;;;;;;;;6263772;28;20041;-79
2021/06/02 09:19:50;;;;;;;4.05;3.15;;;;;;;;;;6246621;28;20125;-79
2021/06/02 09:22:51;;;;;;;3.45;2.53;;;;;;;;;;6244389;28;20071;-78
2021/06/02 09:26:18;;;;;;;2.92;2.28;;;;;;;;;;6244440;28;20045;-80
2021/06/02 09:29:19;;;;;;;2.95;2.40;;;;;;;;;;6247175;28;20404;-79
2021/06/02 09:32:23;;;;;;;2.63;2.03;;;;;;;;;;6245154;28;20049;-78
2021/06/02 09:35:42;;;;;;;3.85;2.30;;;;;;;;;;6244645;28;20037;-78
2021/06/02 09:38:52;;;;;;;3.33;2.60;;;;;;;;;;6247083;28;20046;-78
2021/06/02 09:41:59;;;;;;;5.60;2.90;;;;;;;;;;6250542;28;20056;-80
2021/06/02 09:45:12;;;;;;;3.70;2.53;;;;;;;;;;6253576;28;20048;-78
2021/06/02 09:48:14;;;;;;;3.22;2.30;;;;;;;;;;6231002;28;20136;-78
2021/06/02 09:51:37;;;;;;;3.38;2.50;;;;;;;;;;6240324;28;20949;-76
2021/06/02 09:54:39;;;;;;;6.75;2.60;;;;;;;;;;6234134;28;20045;-77
2021/06/02 09:57:41;;;;;;;2.70;2.50;;;;;;;;;;6235953;28;20519;-75
2021/06/02 10:00:58;;;;;;;3.60;2.42;;;;;;;;;;6237685;28;20418;-77
2021/06/02 10:04:03;;;;;;;3.08;2.28;;;;;;;;;;6235028;28;20123;-77
2021/06/02 10:07:16;;;;;;;4.90;2.50;;;;;;;;;;6236295;28;20057;-77
2021/06/02 10:10:20;;;;;;;3.28;2.53;;;;;;;;;;6220767;28;20092;-77
2021/06/02 10:13:23;;;;;;;2.90;2.17;;;;;;;;;;6211799;28;20491;-77
2021/06/02 10:16:35;;;;;;;2.88;2.60;;;;;;;;;;6226458;28;20042;-76
2021/06/02 10:19:42;;;;;;;3.42;2.50;;;;;;;;;;6232110;28;20045;-76
2021/06/02 10:22:51;;;;;;;2.95;2.65;;;;;;;;;;6234163;28;20479;-77
2021/06/02 10:25:56;;;;;;;3.20;2.60;;;;;;;;;;6236515;28;20103;-77
2021/06/02 10:28:57;;;;;;;4.28;2.45;;;;;;;;;;6239298;28;20052;-75
2021/06/02 10:31:59;;;;;;;3.00;2.57;;;;;;;;;;6239982;28;20055;-76
2021/06/02 10:35:01;;;;;;;4.00;2.60;;;;;;;;;;6239263;28;20521;-77
2021/06/02 10:38:03;;;;;;;2.65;2.35;;;;;;;;;;6240766;28;20045;-77
2021/06/02 10:41:06;;;;;;;2.50;2.30;;;;;;;;;;6237542;28;20102;-77
2021/06/02 10:44:10;;;;;;;3.03;2.63;;;;;;;;;;6241033;28;20041;-76
2021/06/02 10:47:12;;;;;;;4.07;2.50;;;;;;;;;;6229446;28;20495;-77
2021/06/02 10:50:37;;;;;;;2.58;2.38;;;;;;;;;;6239333;28;20048;-76
2021/06/02 10:53:38;;;;;;;3.55;2.45;;;;;;;;;;6238895;28;20045;-78
2021/06/02 10:56:56;;;;;;;3.63;2.22;;;;;;;;;;6238491;28;20055;-78
2021/06/02 11:00:10;;;;;;;3.67;2.17;;;;;;;;;;6238984;28;20525;-78
2021/06/02 11:03:27;;;;;;;2.60;2.30;;;;;;;;;;6240469;28;20487;-78
2021/06/02 11:06:34;;;;;;;4.45;2.40;;;;;;;;;;6239423;28;20094;-75
2021/06/02 11:09:51;;;;;;;3.00;2.70;;;;;;;;;;6229911;28;20054;-76
2021/06/02 11:12:55;;;;;;;3.63;2.50;;;;;;;;;;6229518;28;20053;-76
2021/06/02 11:15:57;;;;;;;3.00;2.40;;;;;;;;;;6215057;28;20045;-76
2021/06/02 11:19:12;;;;;;;3.40;2.60;;;;;;;;;;6225798;28;20099;-77
2021/06/02 11:22:16;;;;;;;2.72;2.25;;;;;;;;;;6223917;28;20052;-79
2021/06/02 11:25:21;;;;;;;2.97;2.20;;;;;;;;;;6192549;28;20046;-78
2021/06/02 11:28:47;;;;;;;3.33;2.40;;;;;;;;;;6222238;28;20038;-79
2021/06/02 11:31:54;;;;;;;2.70;2.50;;;;;;;;;;6200153;28;20049;-79
2021/06/02 11:34:58;;;;;;;2.55;2.35;;;;;;;;;;6212666;28;20097;-79
2021/06/02 11:38:00;;;;;;;2.75;2.45;;;;;;;;;;6225827;28;20123;-79
2021/06/02 11:41:02;;;;;;;;;;;;;;;;;;6246859;28;20046;-78
2021/06/02 11:44:04;;;;;;;4.07;2.58;;;;;;;;;;6257223;28;19971;-79
2021/06/02 11:47:12;;;;;;;3.03;2.70;;;;;;;;;;6276866;28;20044;-79
2021/06/02 11:50:14;;;;;;;2.63;2.42;;;;;;;;;;6268252;28;20052;-79
2021/06/02 11:53:16;;;;;;;2.70;2.50;;;;;;;;;;6255349;28;20122;-78
2021/06/02 11:56:18;;;;;;;5.07;2.17;;;;;;;;;;6233406;28;20498;-78
2021/06/02 11:59:20;;;;;;;4.55;2.33;;;;;;;;;;6256338;28;20037;-75
2021/06/02 12:02:22;;;;;;;3.05;2.38;;;;;;;;;;6213632;28;20060;-78
2021/06/02 12:05:23;;;;;;;;;;;;;;;;;;6219496;28;20584;-78
2021/06/02 12:08:25;;;;;;;2.40;2.20;;;;;;;;;;6241738;28;19973;-78
2021/06/02 12:11:27;;;;;;;2.17;2.00;;;;;;;;;;6199801;28;20184;-78
2021/06/02 12:14:30;;;;;;;3.03;2.53;;;;;;;;;;6208478;28;20052;-79
2021/06/02 12:17:32;;;;;;;2.60;2.40;;;;;;;;;;6192586;28;20130;-78
2021/06/02 12:20:35;;;;;;;;;;;;;;;;;;6215731;28;20042;-78
2021/06/02 12:24:03;;;;;;;2.88;2.17;;;;;;;;;;6215600;28;19940;-78
2021/06/02 12:27:15;;;;;;;3.95;2.10;;;;;;;;;;6240963;28;20037;-78
2021/06/02 12:30:27;;;;;;;4.10;2.20;;;;;;;;;;6236317;28;20117;-78
2021/06/02 12:33:29;;;;;;;2.20;2.00;;;;;;;;;;6240580;28;20045;-78
2021/06/02 12:36:32;;;;;;;2.35;2.10;;;;;;;;;;6236631;28;20075;-79
2021/06/02 12:39:36;;;;;;;3.35;2.17;;;;;;;;;;6246817;28;20641;-78
2021/06/02 12:42:45;;;;;;;2.53;2.25;;;;;;;;;;6250977;28;20129;-78
2021/06/02 12:45:52;;;;;;;2.55;1.98;;;;;;;;;;6250872;28;20050;-79
2021/06/02 12:48:53;;;;;;;2.28;2.00;;;;;;;;;;6238328;28;20076;-79
2021/06/02 12:51:56;;;;;;;2.35;2.10;;;;;;;;;;6254955;28;20137;-78
2021/06/02 12:55:06;;;;;;;1.90;1.80;;;;;;;;;;6231191;28;20061;-77
2021/06/02 12:58:15;;;;;;;2.63;2.10;;;;;;;;;;6229364;28;20207;-76
2021/06/02 13:01:17;;;;;;;3.05;2.22;;;;;;;;;;6230559;28;20140;-77
2021/06/02 13:04:18;;;;;;;2.30;2.05;;;;;;;;;;6228291;28;20046;-77
2021/06/02 13:07:36;;;;;;;2.20;2.00;;;;;;;;;;6229918;28;20391;-77
2021/06/02 13:11:05;;;;;;;3.72;2.20;;;;;;;;;;6184092;28;20057;-76
2021/06/02 13:14:06;;;;;;;3.90;2.40;;;;;;;;;;6221229;28;20153;-76
2021/06/02 13:17:08;;;;;;;2.75;2.28;;;;;;;;;;6205612;28;20041;-76
2021/06/02 13:20:10;;;;;;;4.78;2.45;;;;;;;;;;6257647;28;20093;-78
2021/06/02 13:23:17;;;;;;;3.53;2.25;;;;;;;;;;6260789;28;20099;-79
2021/06/02 13:26:19;;;;;;;4.93;2.10;;;;;;;;;;6271569;28;20051;-79
2021/06/02 13:29:21;;;;;;;2.90;2.70;;;;;;;;;;6273550;28;20499;-79
2021/06/02 13:32:22;;;;;;;2.90;2.60;;;;;;;;;;6271539;28;20056;-78
2021/06/02 13:35:24;;;;;;;3.20;2.20;;;;;;;;;;6266134;28;20104;-79
2021/06/02 13:38:26;;;;;;;2.72;2.45;;;;;;;;;;6262608;28;20104;-78
2021/06/02 13:41:28;;;;;;;2.80;2.20;;;;;;;;;;6240759;28;20096;-79
2021/06/02 13:44:29;;;;;;;2.42;2.22;;;;;;;;;;6247604;28;20041;-79
2021/06/02 13:47:31;;;;;;;2.50;2.30;;;;;;;;;;6232065;28;20140;-80
2021/06/02 13:50:33;;;;;;;2.67;2.40;;;;;;;;;;6210561;28;20082;-79
2021/06/02 13:53:35;;;;;;;3.03;2.50;;;;;;;;;;6216663;28;20041;-78
2021/06/02 13:57:06;;;;;;;2.28;2.13;;;;;;;;;;6215809;28;20046;-79
2021/06/02 14:00:09;;;;;;;2.20;2.10;;;;;;;;;;6210783;28;20101;-79
2021/06/02 14:03:15;;;;;;;3.22;2.30;;;;;;;;;;6216958;28;20051;-79
2021/06/02 14:06:17;;;;;;;2.83;2.38;;;;;;;;;;6209074;28;20118;-79
2021/06/02 14:09:19;;;;;;;2.85;2.58;;;;;;;;;;6221703;28;20042;-79
2021/06/02 14:12:20;;;;;;;;;;;;;;;;;;6210248;28;20046;-79
2021/06/02 14:15:22;;;;;;;2.60;2.40;;;;;;;;;;6212984;28;19976;-79
2021/06/02 14:18:24;;;;;;;4.25;2.50;;;;;;;;;;6209323;28;20525;-77
2021/06/02 14:21:26;;;;;;;5.93;2.58;;;;;;;;;;6215425;28;20049;-79
2021/06/02 14:24:28;;;;;;;2.30;2.10;;;;;;;;;;6226188;28;20738;-78
2021/06/02 14:27:30;;;;;;;2.47;2.22;;;;;;;;;;6215739;28;20193;-78
2021/06/02 14:30:31;;;;;;;2.60;2.40;;;;;;;;;;6242511;28;20144;-78
2021/06/02 14:33:33;;;;;;;3.42;2.50;;;;;;;;;;6247910;28;20102;-79
2021/06/02 14:36:35;;;;;;;2.97;2.42;;;;;;;;;;6270990;28;20051;-78
2021/06/02 14:39:37;;;;;;;;;;;;;;;;;;6251364;28;20056;-79
2021/06/02 14:42:38;;;;;;;2.85;2.35;;;;;;;;;;6256092;28;19921;-79
2021/06/02 14:45:40;;;;;;;4.25;2.30;;;;;;;;;;6250081;28;20120;-78
2021/06/02 14:48:42;;;;;;;;;;;;;;;;;;6250393;28;20052;-78
2021/06/02 14:51:43;;;;;;;3.40;2.55;;;;;;;;;;6243257;28;20341;-78
2021/06/02 14:54:45;;;;;;;3.03;2.30;;;;;;;;;;6247321;28;20051;-78
2021/06/02 14:57:47;;;;;;;2.97;2.38;;;;;;;;;;6259595;28;20104;-79
2021/06/02 15:00:48;;;;;;;2.53;2.33;;;;;;;;;;6259966;28;20065;-79
2021/06/02 15:03:50;;;;;;;2.53;2.28;;;;;;;;;;6257273;28;20052;-79
2021/06/02 15:06:51;;;;;;;3.78;2.17;;;;;;;;;;6260886;28;20076;-78
2021/06/02 15:09:53;;;;;;;4.25;2.30;;;;;;;;;;6239046;28;20652;-77
2021/06/02 15:12:56;;;;;;;2.42;2.22;;;;;;;;;;6218477;28;20050;-80
2021/06/02 15:16:02;;;;;;;2.30;2.10;;;;;;;;;;6231824;28;20109;-79
2021/06/02 15:19:04;;;;;;;3.92;2.40;;;;;;;;;;6248464;28;20233;-78
2021/06/02 15:22:06;;;;;;;5.82;2.28;;;;;;;;;;6255702;28;20121;-78
2021/06/02 15:25:08;;;;;;;2.30;2.10;;;;;;;;;;6258798;28;20109;-78
2021/06/02 15:28:10;;;;;;;2.40;2.20;;;;;;;;;;6260726;28;20041;-78
2021/06/02 15:31:13;;;;;;;2.63;2.30;;;;;;;;;;6262627;28;20069;-79
2021/06/02 15:34:15;;;;;;;4.00;2.10;;;;;;;;;;6252063;28;20514;-79
2021/06/02 15:37:29;;;;;;;2.65;2.28;;;;;;;;;;6238624;28;20107;-78
2021/06/02 15:40:31;;;;;;;4.13;2.38;;;;;;;;;;6247444;28;20133;-78
2021/06/02 15:43:34;;;;;;;2.47;2.28;;;;;;;;;;6240709;28;20109;-78
2021/06/02 15:46:37;;;;;;;2.70;2.50;;;;;;;;;;6254670;28;20107;-78
2021/06/02 15:49:39;;;;;;;2.47;2.28;;;;;;;;;;6267294;28;20041;-78
2021/06/02 15:52:44;;;;;;;2.78;2.42;;;;;;;;;;6270760;28;20079;-78
2021/06/02 15:55:47;;;;;;;2.92;2.45;;;;;;;;;;6263203;28;20041;-79
2021/06/02 15:58:49;;;;;;;5.03;2.78;;;;;;;;;;6263130;28;20094;-77
2021/06/02 16:01:51;;;;;;;4.32;2.50;;;;;;;;;;6264326;28;20132;-79
2021/06/02 16:04:53;;;;;;;2.40;2.08;;;;;;;;;;6245980;28;20536;-78
2021/06/02 16:07:54;;;;;;;2.80;2.50;;;;;;;;;;6235880;28;20084;-78
2021/06/02 16:10:56;;;;;;;3.17;2.88;;;;;;;;;;6236261;28;20049;-77
2021/06/02 16:13:58;;;;;;;2.83;2.40;;;;;;;;;;6233202;28;20472;-77
2021/06/02 16:17:00;;;;;;;2.33;2.13;;;;;;;;;;6238092;28;20109;-77
2021/06/02 16:20:03;;;;;;;2.15;1.95;;;;;;;;;;6258744;28;20068;-77
2021/06/02 16:23:04;;;;;;;2.72;2.40;;;;;;;;;;6259283;28;20051;-78
2021/06/02 16:26:10;;;;;;;2.38;2.00;;;;;;;;;;6257488;28;20513;-77
2021/06/02 16:29:13;;;;;;;3.90;2.17;;;;;;;;;;6257772;28;20049;-77
2021/06/02 16:32:17;;;;;;;2.30;2.10;;;;;;;;;;6256421;28;20819;-78
2021/06/02 16:35:21;;;;;;;3.38;2.40;;;;;;;;;;6258917;28;20119;-78
2021/06/02 16:38:23;;;;;;;2.30;2.10;;;;;;;;;;6253688;28;20128;-79
2021/06/02 16:41:25;;;;;;;3.65;2.50;;;;;;;;;;6209219;28;20046;-78
2021/06/02 16:44:27;;;;;;;;;;;;;;;;;;6208243;28;20855;-78
2021/06/02 16:47:28;;;;;;;2.45;2.25;;;;;;;;;;6234586;28;19932;-79
2021/06/02 16:50:31;;;;;;;2.38;2.15;;;;;;;;;;6260981;28;20066;-78
2021/06/02 16:53:35;;;;;;;2.72;2.35;;;;;;;;;;6265718;28;20048;-78
2021/06/02 16:56:44;;;;;;;2.75;2.30;;;;;;;;;;6266776;28;20064;-77
2021/06/02 16:59:46;;;;;;;2.50;2.30;;;;;;;;;;6264548;28;20052;-79
2021/06/02 17:02:50;;;;;;;2.40;2.20;;;;;;;;;;6260610;28;20045;-79
2021/06/02 17:05:52;;;;;;;2.30;2.10;;;;;;;;;;6265549;28;20061;-80
2021/06/02 17:08:56;;;;;;;2.57;2.37;;;;;;;;;;6262073;28;20063;-79
2021/06/02 17:11:59;;;;;;;2.20;2.00;;;;;;;;;;6239986;28;20455;-80
2021/06/02 17:15:02;;;;;;;3.00;2.40;;;;;;;;;;6240178;28;20368;-79
2021/06/02 17:18:05;;;;;;;5.72;2.67;;;;;;;;;;6218132;28;20042;-79
2021/06/02 17:21:08;;;;;;;3.83;2.65;;;;;;;;;;6236263;28;20049;-79
2021/06/02 17:24:10;;;;;;;2.10;2.00;;;;;;;;;;6207307;28;20042;-79
2021/06/02 17:27:14;;;;;;;3.40;2.25;;;;;;;;;;6202563;28;20056;-79
2021/06/02 17:30:18;;;;;;;2.60;2.40;;;;;;;;;;6188607;28;20100;-79
2021/06/02 17:33:20;;;;;;;3.05;2.30;;;;;;;;;;6193864;28;20035;-79
2021/06/02 17:36:23;;;;;;;3.03;2.25;;;;;;;;;;6199976;28;20058;-78
2021/06/02 17:39:25;;;;;;;3.30;3.00;;;;;;;;;;6220410;28;20115;-79
2021/06/02 17:42:28;;;;;;;4.82;2.60;;;;;;;;;;6213492;28;20186;-79
2021/06/02 17:45:30;;;;;;;3.03;2.72;;;;;;;;;;6218154;28;20049;-79
2021/06/02 17:48:36;;;;;;;2.47;2.10;;;;;;;;;;6258629;28;20053;-79
2021/06/02 17:51:41;;;;;;;3.03;2.40;;;;;;;;;;6266362;28;20049;-79
2021/06/02 17:54:45;;;;;;;4.10;2.30;;;;;;;;;;6265435;28;20051;-79
2021/06/02 17:57:49;;;;;;;3.15;2.60;;;;;;;;;;6265384;28;20091;-78
2021/06/02 18:00:51;;;;;;;2.97;2.25;;;;;;;;;;6267042;28;20052;-79
2021/06/02 18:03:54;;;;;;;2.58;2.38;;;;;;;;;;6265800;28;20045;-80
2021/06/02 18:06:57;;;;;;;2.40;2.20;;;;;;;;;;6267833;28;20620;-79
2021/06/02 18:09:59;;;;;;;;;;;;;;;;;;6252632;28;20045;-79
2021/06/02 18:13:00;;;;;;;3.28;2.15;;;;;;;;;;6241160;28;19947;-79
2021/06/02 18:16:09;;;;;;;2.30;2.10;;;;;;;;;;6256713;28;20850;-79
2021/06/02 18:19:12;;;;;;;2.50;2.30;;;;;;;;;;6260802;28;20493;-78
2021/06/02 18:22:39;;;;;;;2.50;2.30;;;;;;;;;;6264655;28;20702;-78
2021/06/02 18:25:40;;;;;;;5.13;2.42;;;;;;;;;;6262487;28;20045;-79
2021/06/02 18:28:42;;;;;;;3.50;3.10;;;;;;;;;;6263362;28;20452;-78
2021/06/02 18:31:48;;;;;;;5.43;4.93;;;;;;;;;;6264859;28;20738;-81
2021/06/02 18:34:50;;;;;;;4.15;3.40;;;;;;;;;;6264027;28;20041;-81
2021/06/02 18:37:52;;;;;;;2.88;2.60;;;;;;;;;;6265822;28;20053;-81
2021/06/02 18:40:54;;;;;;;3.28;2.92;;;;;;;;;;6240327;28;20544;-81
2021/06/02 18:43:56;;;;;;;2.83;2.13;;;;;;;;;;6241494;28;20049;-80
2021/06/02 18:46:58;;;;;;;2.70;2.50;;;;;;;;;;6230652;28;20051;-81
2021/06/02 18:49:59;;;;;;;3.42;2.50;;;;;;;;;;6253532;28;20063;-81
2021/06/02 18:53:01;;;;;;;4.65;2.88;;;;;;;;;;6263350;28;20098;-80